createdAt,value
2023-04-01T00:00:06.759Z,26.00
2023-04-01T00:01:06.908Z,25.98
2023-04-01T00:02:06.981Z,25.98
2023-04-01T00:03:07.090Z,25.95
2023-04-01T00:04:07.109Z,25.96
2023-04-01T00:05:07.189Z,25.98
2023-04-01T00:06:07.254Z,25.92
2023-04-01T00:07:07.331Z,25.95
2023-04-01T00:08:07.381Z,25.93
2023-04-01T00:09:07.457Z,25.90
2023-04-01T00:10:07.564Z,25.89
2023-04-01T00:11:07.640Z,25.88
2023-04-01T00:12:07.704Z,25.92
2023-04-01T00:13:07.775Z,25.92
2023-04-01T00:14:07.855Z,25.89
2023-04-01T00:15:07.945Z,25.88
2023-04-01T00:16:19.787Z,25.83
2023-04-01T00:17:09.177Z,25.86
2023-04-01T00:18:08.063Z,25.82
2023-04-01T00:19:08.124Z,25.86
2023-04-01T00:20:08.133Z,25.85
2023-04-01T00:21:08.174Z,25.85
2023-04-01T00:22:08.213Z,25.82
2023-04-01T00:23:08.244Z,25.83
2023-04-01T00:24:08.286Z,25.85
2023-04-01T00:25:08.255Z,25.83
2023-04-01T00:26:08.322Z,25.82
2023-04-01T00:27:08.346Z,25.81
2023-04-01T00:28:08.375Z,25.82
2023-04-01T00:29:08.467Z,25.82
2023-04-01T00:30:08.522Z,25.78
2023-04-01T00:31:08.678Z,25.76
2023-04-01T00:32:08.689Z,25.78
2023-04-01T00:33:08.807Z,25.76
2023-04-01T00:34:08.831Z,25.79
2023-04-01T00:35:08.947Z,25.81
2023-04-01T00:36:09.005Z,25.76
2023-04-01T00:37:09.053Z,25.79
2023-04-01T00:38:09.132Z,25.72
2023-04-01T00:39:09.241Z,25.75
2023-04-01T00:40:09.264Z,25.78
2023-04-01T00:41:09.362Z,25.76
2023-04-01T00:42:09.450Z,25.69
2023-04-01T00:43:09.516Z,25.72
2023-04-01T00:44:09.586Z,25.65
2023-04-01T00:45:09.646Z,25.65
2023-04-01T00:46:09.728Z,25.65
2023-04-01T00:47:09.875Z,25.66
2023-04-01T00:48:09.961Z,25.69
2023-04-01T00:49:09.989Z,25.69
2023-04-01T00:50:10.054Z,25.69
2023-04-01T00:51:10.121Z,25.65
2023-04-01T00:52:10.208Z,25.64
2023-04-01T00:53:10.259Z,25.69
2023-04-01T00:54:10.363Z,25.61
2023-04-01T00:55:10.410Z,25.65
2023-04-01T00:56:10.484Z,25.65
2023-04-01T00:57:10.579Z,25.69
2023-04-01T00:58:10.639Z,25.65
2023-04-01T00:59:10.701Z,25.65
2023-04-01T01:00:10.808Z,25.68
2023-04-01T01:01:10.894Z,25.61
2023-04-01T01:02:10.945Z,25.61
2023-04-01T01:03:11.045Z,25.57
2023-04-01T01:04:11.089Z,25.59
2023-04-01T01:05:11.153Z,25.55
2023-04-01T01:06:11.248Z,25.51
2023-04-01T01:07:11.289Z,25.49
2023-04-01T01:08:11.383Z,25.56
2023-04-01T01:09:11.475Z,25.54
2023-04-01T01:10:11.544Z,25.51
2023-04-01T01:11:11.620Z,25.52
2023-04-01T01:12:11.738Z,25.55
2023-04-01T01:13:11.753Z,25.54
2023-04-01T01:14:11.795Z,25.51
2023-04-01T01:15:11.901Z,25.47
2023-04-01T01:16:11.996Z,25.45
2023-04-01T01:17:12.041Z,25.45
2023-04-01T01:18:12.129Z,25.49
2023-04-01T01:19:12.249Z,25.45
2023-04-01T01:20:23.060Z,25.48
2023-04-01T01:21:13.294Z,25.48
2023-04-01T01:22:12.356Z,25.44
2023-04-01T01:23:12.383Z,25.41
2023-04-01T01:24:12.418Z,25.41
2023-04-01T01:25:12.443Z,25.45
2023-04-01T01:26:12.471Z,25.45
2023-04-01T01:27:12.500Z,25.47
2023-04-01T01:28:12.551Z,25.38
2023-04-01T01:29:12.562Z,25.43
2023-04-01T01:30:12.573Z,25.44
2023-04-01T01:31:12.654Z,25.35
2023-04-01T01:32:12.631Z,25.33
2023-04-01T01:33:12.660Z,25.37
2023-04-01T01:34:12.713Z,25.38
2023-04-01T01:35:12.768Z,25.37
2023-04-01T01:36:12.848Z,25.39
2023-04-01T01:37:12.924Z,25.38
2023-04-01T01:38:13.053Z,25.38
2023-04-01T01:39:13.085Z,25.35
2023-04-01T01:40:13.136Z,25.37
2023-04-01T01:41:13.201Z,25.38
2023-04-01T01:42:13.279Z,25.36
2023-04-01T01:43:13.362Z,25.37
2023-04-01T01:44:13.430Z,25.39
2023-04-01T01:45:13.498Z,25.36
2023-04-01T01:46:13.647Z,25.35
2023-04-01T01:47:13.677Z,25.31
2023-04-01T01:48:13.727Z,25.25
2023-04-01T01:49:13.823Z,25.31
2023-04-01T01:50:13.892Z,25.31
2023-04-01T01:51:13.973Z,25.30
2023-04-01T01:52:14.012Z,25.28
2023-04-01T01:53:14.109Z,25.25
2023-04-01T01:54:14.138Z,25.30
2023-04-01T01:55:14.234Z,25.26
2023-04-01T01:56:14.308Z,25.30
2023-04-01T01:57:14.434Z,25.26
2023-04-01T01:58:14.466Z,25.28
2023-04-01T01:59:14.508Z,25.34
2023-04-01T02:00:14.683Z,25.25
2023-04-01T02:01:14.677Z,25.28
2023-04-01T02:02:14.728Z,25.23
2023-04-01T02:03:15.421Z,25.23
2023-04-01T02:04:14.933Z,25.23
2023-04-01T02:05:14.984Z,25.16
2023-04-01T02:06:15.022Z,25.13
2023-04-01T02:07:15.070Z,25.10
2023-04-01T02:08:15.158Z,25.11
2023-04-01T02:09:15.301Z,25.17
2023-04-01T02:10:15.355Z,25.14
2023-04-01T02:11:15.362Z,25.20
2023-04-01T02:12:15.420Z,25.18
2023-04-01T02:13:15.536Z,25.15
2023-04-01T02:14:15.608Z,25.17
2023-04-01T02:15:15.692Z,25.17
2023-04-01T02:16:15.764Z,25.17
2023-04-01T02:17:15.800Z,25.18
2023-04-01T02:18:15.893Z,25.17
2023-04-01T02:19:15.966Z,25.14
2023-04-01T02:20:16.018Z,25.08
2023-04-01T02:21:16.086Z,25.10
2023-04-01T02:22:16.148Z,25.11
2023-04-01T02:23:16.264Z,25.14
2023-04-01T02:24:16.321Z,25.13
2023-04-01T02:25:16.421Z,25.11
2023-04-01T02:26:16.488Z,25.10
2023-04-01T02:27:16.563Z,25.09
2023-04-01T02:28:16.636Z,25.04
2023-04-01T02:29:16.688Z,25.13
2023-04-01T02:30:16.782Z,25.08
2023-04-01T02:31:16.859Z,25.03
2023-04-01T02:32:16.913Z,25.05
2023-04-01T02:33:16.982Z,25.02
2023-04-01T02:34:17.073Z,25.05
2023-04-01T02:35:17.142Z,25.02
2023-04-01T02:36:17.264Z,25.11
2023-04-01T02:37:17.311Z,25.07
2023-04-01T02:38:17.360Z,25.08
2023-04-01T02:39:17.429Z,24.99
2023-04-01T02:40:17.493Z,25.06
2023-04-01T02:41:17.603Z,25.07
2023-04-01T02:42:17.661Z,25.09
2023-04-01T02:43:17.730Z,25.02
2023-04-01T02:44:17.769Z,24.99
2023-04-01T02:45:17.884Z,25.01
2023-04-01T02:46:18.000Z,24.97
2023-04-01T02:47:17.999Z,24.99
2023-04-01T02:48:18.060Z,24.94
2023-04-01T02:49:18.164Z,24.92
2023-04-01T02:50:18.232Z,24.92
2023-04-01T02:51:18.574Z,24.93
2023-04-01T02:52:18.365Z,24.90
2023-04-01T02:53:18.458Z,24.93
2023-04-01T02:54:18.504Z,24.98
2023-04-01T02:55:18.571Z,24.98
2023-04-01T02:56:18.634Z,24.96
2023-04-01T02:57:18.731Z,24.97
2023-04-01T02:58:18.765Z,24.97
2023-04-01T02:59:18.854Z,24.92
2023-04-01T03:00:18.924Z,24.93
2023-04-01T03:01:19.013Z,24.93
2023-04-01T03:02:19.147Z,24.96
2023-04-01T03:03:19.244Z,24.96
2023-04-01T03:04:19.236Z,25.00
2023-04-01T03:05:19.278Z,24.93
2023-04-01T03:06:19.394Z,24.92
2023-04-01T03:07:19.472Z,24.90
2023-04-01T03:08:19.543Z,24.96
2023-04-01T03:09:19.613Z,24.93
2023-04-01T03:10:19.671Z,24.94
2023-04-01T03:11:19.752Z,24.87
2023-04-01T03:12:19.831Z,24.90
2023-04-01T03:13:19.928Z,24.92
2023-04-01T03:14:19.975Z,24.84
2023-04-01T03:15:20.065Z,24.74
2023-04-01T03:16:20.155Z,24.77
2023-04-01T03:17:20.178Z,24.77
2023-04-01T03:18:20.265Z,24.80
2023-04-01T03:19:20.342Z,24.80
2023-04-01T03:20:20.399Z,24.86
2023-04-01T03:21:20.480Z,24.86
2023-04-01T03:22:20.518Z,24.86
2023-04-01T03:23:20.623Z,24.86
2023-04-01T03:24:20.692Z,24.87
2023-04-01T03:25:20.727Z,24.87
2023-04-01T03:26:20.812Z,24.83
2023-04-01T03:27:20.868Z,24.80
2023-04-01T03:28:20.960Z,24.77
2023-04-01T03:29:21.039Z,24.77
2023-04-01T03:30:21.117Z,24.76
2023-04-01T03:31:23.615Z,24.79
2023-04-01T03:32:21.211Z,24.73
2023-04-01T03:33:21.228Z,24.82
2023-04-01T03:34:21.305Z,24.83
2023-04-01T03:35:21.258Z,24.83
2023-04-01T03:36:21.365Z,24.79
2023-04-01T03:37:21.321Z,24.76
2023-04-01T03:38:21.328Z,24.82
2023-04-01T03:39:21.338Z,24.82
2023-04-01T03:40:21.377Z,24.72
2023-04-01T03:41:21.378Z,24.76
2023-04-01T03:42:21.396Z,24.79
2023-04-01T03:43:21.457Z,24.76
2023-04-01T03:44:21.468Z,24.76
2023-04-01T03:45:21.493Z,24.79
2023-04-01T03:46:21.741Z,24.72
2023-04-01T03:47:21.536Z,24.76
2023-04-01T03:48:21.542Z,24.79
2023-04-01T03:49:21.593Z,24.73
2023-04-01T03:50:21.622Z,24.72
2023-04-01T03:51:21.603Z,24.62
2023-04-01T03:52:21.610Z,24.66
2023-04-01T03:53:21.630Z,24.67
2023-04-01T03:54:21.667Z,24.70
2023-04-01T03:55:21.723Z,24.74
2023-04-01T03:56:21.748Z,24.72
2023-04-01T03:57:21.790Z,24.69
2023-04-01T03:58:21.782Z,24.69
2023-04-01T03:59:21.843Z,24.67
2023-04-01T04:00:21.857Z,24.69
2023-04-01T04:01:22.002Z,24.67
2023-04-01T04:02:21.947Z,24.72
2023-04-01T04:03:22.070Z,24.72
2023-04-01T04:04:22.020Z,24.66
2023-04-01T04:05:22.027Z,24.70
2023-04-01T04:06:22.012Z,24.66
2023-04-01T04:07:22.060Z,24.62
2023-04-01T04:08:22.038Z,24.64
2023-04-01T04:09:22.090Z,24.61
2023-04-01T04:10:22.128Z,24.65
2023-04-01T04:11:22.132Z,24.65
2023-04-01T04:12:22.185Z,24.66
2023-04-01T04:13:22.188Z,24.65
2023-04-01T04:14:22.262Z,24.60
2023-04-01T04:15:22.281Z,24.63
2023-04-01T04:16:22.314Z,24.62
2023-04-01T04:17:22.991Z,24.63
2023-04-01T04:18:22.347Z,24.66
2023-04-01T04:19:22.341Z,24.63
2023-04-01T04:20:22.388Z,24.63
2023-04-01T04:21:22.459Z,24.66
2023-04-01T04:22:22.429Z,24.66
2023-04-01T04:23:22.492Z,24.67
2023-04-01T04:24:22.556Z,24.67
2023-04-01T04:25:22.706Z,24.67
2023-04-01T04:26:22.717Z,24.60
2023-04-01T04:27:22.807Z,24.62
2023-04-01T04:28:22.837Z,24.56
2023-04-01T04:29:22.947Z,24.62
2023-04-01T04:30:22.994Z,24.64
2023-04-01T04:31:23.149Z,24.63
2023-04-01T04:32:23.283Z,24.59
2023-04-01T04:33:23.231Z,24.63
2023-04-01T04:34:23.327Z,24.63
2023-04-01T04:35:23.413Z,24.59
2023-04-01T04:36:23.510Z,24.62
2023-04-01T04:37:23.557Z,24.60
2023-04-01T04:38:23.645Z,24.60
2023-04-01T04:39:23.732Z,24.59
2023-04-01T04:40:23.811Z,24.59
2023-04-01T04:41:23.869Z,24.57
2023-04-01T04:42:23.942Z,24.57
2023-04-01T04:43:24.002Z,24.55
2023-04-01T04:44:24.120Z,24.56
2023-04-01T04:45:24.178Z,24.51
2023-04-01T04:46:24.351Z,24.51
2023-04-01T04:47:24.336Z,24.55
2023-04-01T04:48:24.406Z,24.56
2023-04-01T04:49:24.515Z,24.55
2023-04-01T04:50:24.553Z,24.56
2023-04-01T04:51:24.654Z,24.53
2023-04-01T04:52:24.655Z,24.55
2023-04-01T04:53:24.732Z,24.55
2023-04-01T04:54:24.853Z,24.52
2023-04-01T04:55:24.930Z,24.48
2023-04-01T04:56:25.000Z,24.55
2023-04-01T04:57:25.086Z,24.55
2023-04-01T04:58:25.152Z,24.48
2023-04-01T04:59:25.205Z,24.53
2023-04-01T05:00:25.310Z,24.52
2023-04-01T05:01:25.424Z,24.48
2023-04-01T05:02:25.478Z,24.49
2023-04-01T05:03:25.587Z,24.46
2023-04-01T05:04:25.611Z,24.53
2023-04-01T05:05:25.688Z,24.55
2023-04-01T05:06:25.770Z,24.48
2023-04-01T05:07:25.843Z,24.50
2023-04-01T05:08:25.871Z,24.46
2023-04-01T05:09:25.954Z,24.48
2023-04-01T05:10:26.025Z,24.46
2023-04-01T05:11:26.137Z,24.46
2023-04-01T05:12:26.173Z,24.48
2023-04-01T05:13:26.242Z,24.46
2023-04-01T05:14:26.363Z,24.49
2023-04-01T05:15:26.406Z,24.45
2023-04-01T05:16:26.511Z,24.49
2023-04-01T05:17:26.586Z,24.49
2023-04-01T05:18:26.646Z,24.46
2023-04-01T05:19:26.968Z,24.43
2023-04-01T05:20:26.802Z,24.49
2023-04-01T05:21:26.890Z,24.44
2023-04-01T05:22:26.959Z,24.49
2023-04-01T05:23:27.007Z,24.43
2023-04-01T05:24:27.077Z,24.53
2023-04-01T05:25:27.139Z,24.44
2023-04-01T05:26:27.217Z,24.42
2023-04-01T05:27:27.321Z,24.46
2023-04-01T05:28:27.350Z,24.41
2023-04-01T05:29:27.450Z,24.43
2023-04-01T05:30:27.508Z,24.48
2023-04-01T05:31:27.768Z,24.41
2023-04-01T05:32:27.660Z,24.36
2023-04-01T05:33:27.713Z,24.36
2023-04-01T05:34:27.780Z,24.45
2023-04-01T05:35:27.876Z,24.44
2023-04-01T05:36:27.904Z,24.42
2023-04-01T05:37:27.974Z,24.39
2023-04-01T05:38:28.023Z,24.40
2023-04-01T05:39:28.089Z,24.35
2023-04-01T05:40:28.182Z,24.34
2023-04-01T05:41:28.301Z,24.38
2023-04-01T05:42:28.342Z,24.37
2023-04-01T05:43:28.405Z,24.42
2023-04-01T05:44:28.457Z,24.38
2023-04-01T05:45:28.519Z,24.41
2023-04-01T05:46:28.662Z,24.39
2023-04-01T05:47:28.701Z,24.36
2023-04-01T05:48:28.741Z,24.36
2023-04-01T05:49:29.012Z,24.38
2023-04-01T05:50:28.897Z,24.34
2023-04-01T05:51:28.947Z,24.33
2023-04-01T05:52:29.030Z,24.35
2023-04-01T05:53:29.094Z,24.32
2023-04-01T05:54:29.172Z,24.31
2023-04-01T05:55:29.201Z,24.36
2023-04-01T05:56:29.267Z,24.36
2023-04-01T05:57:29.375Z,24.35
2023-04-01T05:58:29.381Z,24.34
2023-04-01T05:59:29.448Z,24.34
2023-04-01T06:00:29.583Z,24.34
2023-04-01T06:01:29.601Z,24.35
2023-04-01T06:02:29.783Z,24.33
2023-04-01T06:03:29.792Z,24.38
2023-04-01T06:04:29.815Z,24.34
2023-04-01T06:05:29.889Z,24.35
2023-04-01T06:06:29.947Z,24.35
2023-04-01T06:07:29.991Z,24.33
2023-04-01T06:08:30.060Z,24.29
2023-04-01T06:09:30.234Z,24.30
2023-04-01T06:10:30.263Z,24.29
2023-04-01T06:11:30.308Z,24.33
2023-04-01T06:12:30.370Z,24.28
2023-04-01T06:13:30.444Z,24.24
2023-04-01T06:14:30.519Z,24.17
2023-04-01T06:15:30.575Z,24.27
2023-04-01T06:16:30.663Z,24.18
2023-04-01T06:17:30.708Z,24.24
2023-04-01T06:18:30.766Z,24.27
2023-04-01T06:19:30.863Z,24.33
2023-04-01T06:20:30.907Z,24.27
2023-04-01T06:21:30.989Z,24.24
2023-04-01T06:22:31.024Z,24.24
2023-04-01T06:23:31.097Z,24.20
2023-04-01T06:24:31.189Z,24.26
2023-04-01T06:25:31.523Z,24.25
2023-04-01T06:26:31.271Z,24.28
2023-04-01T06:27:31.364Z,24.23
2023-04-01T06:28:31.432Z,24.24
2023-04-01T06:29:31.523Z,24.31
2023-04-01T06:30:31.578Z,24.27
2023-04-01T06:31:31.684Z,24.24
2023-04-01T06:32:31.725Z,24.21
2023-04-01T06:33:31.787Z,24.28
2023-04-01T06:34:31.858Z,24.27
2023-04-01T06:35:32.188Z,24.27
2023-04-01T06:36:31.978Z,24.23
2023-04-01T06:37:31.967Z,24.23
2023-04-01T06:38:32.075Z,24.18
2023-04-01T06:39:32.152Z,24.26
2023-04-01T06:40:32.246Z,24.21
2023-04-01T06:41:32.261Z,24.20
2023-04-01T06:42:32.311Z,24.24
2023-04-01T06:43:32.380Z,24.23
2023-04-01T06:44:32.468Z,24.23
2023-04-01T06:45:32.808Z,24.18
2023-04-01T06:46:32.629Z,24.26
2023-04-01T06:47:32.690Z,24.28
2023-04-01T06:48:32.950Z,24.21
2023-04-01T06:49:32.789Z,24.21
2023-04-01T06:50:32.906Z,24.17
2023-04-01T06:51:32.941Z,24.20
2023-04-01T06:52:33.005Z,24.20
2023-04-01T06:53:33.057Z,24.18
2023-04-01T06:54:33.120Z,24.21
2023-04-01T06:55:33.327Z,24.21
2023-04-01T06:56:33.254Z,24.20
2023-04-01T06:57:33.343Z,24.19
2023-04-01T06:58:33.362Z,24.19
2023-04-01T06:59:33.449Z,24.17
2023-04-01T07:00:33.484Z,24.16
2023-04-01T07:01:33.615Z,24.11
2023-04-01T07:02:33.633Z,24.13
2023-04-01T07:03:33.708Z,24.13
2023-04-01T07:04:33.774Z,24.16
2023-04-01T07:05:34.069Z,24.20
2023-04-01T07:06:33.904Z,24.20
2023-04-01T07:07:33.956Z,24.17
2023-04-01T07:08:34.047Z,24.14
2023-04-01T07:09:34.162Z,24.17
2023-04-01T07:10:34.114Z,24.14
2023-04-01T07:11:34.202Z,24.14
2023-04-01T07:12:34.268Z,24.11
2023-04-01T07:13:34.330Z,24.14
2023-04-01T07:14:34.400Z,24.11
2023-04-01T07:15:34.633Z,24.14
2023-04-01T07:16:34.638Z,24.14
2023-04-01T07:17:34.598Z,24.13
2023-04-01T07:18:34.665Z,24.13
2023-04-01T07:19:34.711Z,24.13
2023-04-01T07:20:34.668Z,24.13
2023-04-01T07:21:34.724Z,24.09
2023-04-01T07:22:34.756Z,24.13
2023-04-01T07:23:34.746Z,24.16
2023-04-01T07:24:34.771Z,24.12
2023-04-01T07:25:35.048Z,24.14
2023-04-01T07:26:34.806Z,24.09
2023-04-01T07:27:34.816Z,24.14
2023-04-01T07:28:34.931Z,24.05
2023-04-01T07:29:34.900Z,24.08
2023-04-01T07:30:34.896Z,24.11
2023-04-01T07:31:34.934Z,24.08
2023-04-01T07:32:36.305Z,24.12
2023-04-01T07:33:34.952Z,24.05
2023-04-01T07:34:34.948Z,24.09
2023-04-01T07:35:35.295Z,24.05
2023-04-01T07:36:34.992Z,24.09
2023-04-01T07:37:35.018Z,24.06
2023-04-01T07:38:35.054Z,24.08
2023-04-01T07:39:35.087Z,24.08
2023-04-01T07:40:35.069Z,24.08
2023-04-01T07:41:35.115Z,24.09
2023-04-01T07:42:35.127Z,24.05
2023-04-01T07:43:35.139Z,24.09
2023-04-01T07:44:35.176Z,24.03
2023-04-01T07:45:35.319Z,24.06
2023-04-01T07:46:35.266Z,24.06
2023-04-01T07:47:35.265Z,24.06
2023-04-01T07:48:35.284Z,24.03
2023-04-01T07:49:35.254Z,24.03
2023-04-01T07:50:35.289Z,23.98
2023-04-01T07:51:35.341Z,24.06
2023-04-01T07:52:35.413Z,24.05
2023-04-01T07:53:35.410Z,24.02
2023-04-01T07:54:35.473Z,24.03
2023-04-01T07:55:35.872Z,24.04
2023-04-01T07:56:35.595Z,23.99
2023-04-01T07:57:35.681Z,24.01
2023-04-01T07:58:35.731Z,24.04
2023-04-01T07:59:35.819Z,24.06
2023-04-01T08:00:35.883Z,24.06
2023-04-01T08:01:35.932Z,24.07
2023-04-01T08:02:36.005Z,24.01
2023-04-01T08:03:36.135Z,24.04
2023-04-01T08:04:36.166Z,23.99
2023-04-01T08:05:36.167Z,24.05
2023-04-01T08:06:36.241Z,24.04
2023-04-01T08:07:36.317Z,24.02
2023-04-01T08:08:36.397Z,24.02
2023-04-01T08:09:36.418Z,24.05
2023-04-01T08:10:36.476Z,24.00
2023-04-01T08:11:36.537Z,24.02
2023-04-01T08:12:36.614Z,24.01
2023-04-01T08:13:36.680Z,24.04
2023-04-01T08:14:36.721Z,24.01
2023-04-01T08:15:36.817Z,24.02
2023-04-01T08:16:36.891Z,24.01
2023-04-01T08:17:36.906Z,23.98
2023-04-01T08:18:36.999Z,23.98
2023-04-01T08:19:37.065Z,23.94
2023-04-01T08:20:37.136Z,24.00
2023-04-01T08:21:37.210Z,23.94
2023-04-01T08:22:37.244Z,23.96
2023-04-01T08:23:37.301Z,23.94
2023-04-01T08:24:47.070Z,24.00
2023-04-01T08:25:38.366Z,24.00
2023-04-01T08:26:37.404Z,23.96
2023-04-01T08:27:37.430Z,23.97
2023-04-01T08:28:37.464Z,23.97
2023-04-01T08:29:37.445Z,23.87
2023-04-01T08:30:37.480Z,23.96
2023-04-01T08:31:37.491Z,23.94
2023-04-01T08:32:37.570Z,23.92
2023-04-01T08:33:37.540Z,24.03
2023-04-01T08:34:37.592Z,23.97
2023-04-01T08:35:38.824Z,23.97
2023-04-01T08:36:37.601Z,23.99
2023-04-01T08:37:37.585Z,23.97
2023-04-01T08:38:37.611Z,23.89
2023-04-01T08:39:37.639Z,23.90
2023-04-01T08:40:37.653Z,23.83
2023-04-01T08:41:37.735Z,23.94
2023-04-01T08:42:37.766Z,23.93
2023-04-01T08:43:37.800Z,23.90
2023-04-01T08:44:37.863Z,23.93
2023-04-01T08:45:37.940Z,23.83
2023-04-01T08:46:38.004Z,23.89
2023-04-01T08:47:38.073Z,23.87
2023-04-01T08:48:38.098Z,23.90
2023-04-01T08:49:38.201Z,23.92
2023-04-01T08:50:38.222Z,23.86
2023-04-01T08:51:38.256Z,23.81
2023-04-01T08:52:38.317Z,23.82
2023-04-01T08:53:38.382Z,23.82
2023-04-01T08:54:38.458Z,23.79
2023-04-01T08:55:38.504Z,23.78
2023-04-01T08:56:38.556Z,23.79
2023-04-01T08:57:38.591Z,23.73
2023-04-01T08:58:38.664Z,23.76
2023-04-01T08:59:38.725Z,23.75
2023-04-01T09:00:38.807Z,23.79
2023-04-01T09:01:38.834Z,23.79
2023-04-01T09:02:38.989Z,23.82
2023-04-01T09:03:38.966Z,23.76
2023-04-01T09:04:39.009Z,23.75
2023-04-01T09:05:39.022Z,23.74
2023-04-01T09:06:39.121Z,23.79
2023-04-01T09:07:39.163Z,23.67
2023-04-01T09:08:39.223Z,23.68
2023-04-01T09:09:39.311Z,23.68
2023-04-01T09:10:39.346Z,23.68
2023-04-01T09:11:39.412Z,23.75
2023-04-01T09:12:39.467Z,23.84
2023-04-01T09:13:39.521Z,23.79
2023-04-01T09:14:39.609Z,23.82
2023-04-01T09:15:39.643Z,23.72
2023-04-01T09:16:39.671Z,23.77
2023-04-01T09:17:39.796Z,23.72
2023-04-01T09:18:39.819Z,23.69
2023-04-01T09:19:39.882Z,23.74
2023-04-01T09:20:39.913Z,23.65
2023-04-01T09:21:39.972Z,23.70
2023-04-01T09:22:40.071Z,23.67
2023-04-01T09:23:40.114Z,23.64
2023-04-01T09:24:40.156Z,23.67
2023-04-01T09:25:40.203Z,23.68
2023-04-01T09:26:40.264Z,23.61
2023-04-01T09:27:40.318Z,23.62
2023-04-01T09:28:40.374Z,23.61
2023-04-01T09:29:40.429Z,23.64
2023-04-01T09:30:40.513Z,23.74
2023-04-01T09:31:40.592Z,23.75
2023-04-01T09:32:40.610Z,23.72
2023-04-01T09:33:40.657Z,23.70
2023-04-01T09:34:40.748Z,23.67
2023-04-01T09:35:40.890Z,23.54
2023-04-01T09:36:40.880Z,23.57
2023-04-01T09:37:40.887Z,23.64
2023-04-01T09:38:40.959Z,23.72
2023-04-01T09:39:41.003Z,23.74
2023-04-01T09:40:41.086Z,23.65
2023-04-01T09:41:41.115Z,23.70
2023-04-01T09:42:41.165Z,23.61
2023-04-01T09:43:41.309Z,23.65
2023-04-01T09:44:42.874Z,23.55
2023-04-01T09:45:41.318Z,23.47
2023-04-01T09:46:41.562Z,23.58
2023-04-01T09:47:41.510Z,23.63
2023-04-01T09:48:41.537Z,23.60
2023-04-01T09:49:41.704Z,23.56
2023-04-01T09:50:41.641Z,23.50
2023-04-01T09:51:41.740Z,23.58
2023-04-01T09:52:41.750Z,23.58
2023-04-01T09:53:41.815Z,23.56
2023-04-01T09:54:41.863Z,23.54
2023-04-01T09:55:41.920Z,23.61
2023-04-01T09:56:41.982Z,23.63
2023-04-01T09:57:41.996Z,23.48
2023-04-01T09:58:43.811Z,23.40
2023-04-01T09:59:42.133Z,23.44
2023-04-01T10:00:42.189Z,23.50
2023-04-01T10:01:42.292Z,23.58
2023-04-01T10:02:42.329Z,23.43
2023-04-01T10:03:42.342Z,23.43
2023-04-01T10:04:42.420Z,23.30
2023-04-01T10:05:42.458Z,23.49
2023-04-01T10:06:42.478Z,23.49
2023-04-01T10:07:42.600Z,23.35
2023-04-01T10:08:42.649Z,23.30
2023-04-01T10:09:42.683Z,23.27
2023-04-01T10:10:42.745Z,23.41
2023-04-01T10:11:42.820Z,23.38
2023-04-01T10:12:42.883Z,23.29
2023-04-01T10:13:42.892Z,23.27
2023-04-01T10:14:42.950Z,23.25
2023-04-01T10:15:43.026Z,23.29
2023-04-01T10:16:43.128Z,23.24
2023-04-01T10:17:43.152Z,23.18
2023-04-01T10:18:43.182Z,23.20
2023-04-01T10:19:43.322Z,23.20
2023-04-01T10:20:43.322Z,23.23
2023-04-01T10:21:43.386Z,23.26
2023-04-01T10:22:43.452Z,23.23
2023-04-01T10:23:43.516Z,23.17
2023-04-01T10:24:43.559Z,23.23
2023-04-01T10:25:43.611Z,23.14
2023-04-01T10:26:43.641Z,23.14
2023-04-01T10:27:43.713Z,23.19
2023-04-01T10:28:43.761Z,23.12
2023-04-01T10:29:43.850Z,23.19
2023-04-01T10:30:43.927Z,23.11
2023-04-01T10:31:43.999Z,23.09
2023-04-01T10:32:44.782Z,23.14
2023-04-01T10:33:44.038Z,23.17
2023-04-01T10:34:44.149Z,23.20
2023-04-01T10:35:44.207Z,23.15
2023-04-01T10:36:44.212Z,23.11
2023-04-01T10:37:44.294Z,23.16
2023-04-01T10:38:44.341Z,23.14
2023-04-01T10:39:44.442Z,23.17
2023-04-01T10:40:44.450Z,23.12
2023-04-01T10:41:44.522Z,23.11
2023-04-01T10:42:44.588Z,23.13
2023-04-01T10:43:44.652Z,23.10
2023-04-01T10:44:44.689Z,23.10
2023-04-01T10:45:44.789Z,23.09
2023-04-01T10:46:44.817Z,23.08
2023-04-01T10:47:44.960Z,23.10
2023-04-01T10:48:44.912Z,23.11
2023-04-01T10:49:44.999Z,23.06
2023-04-01T10:50:44.991Z,23.10
2023-04-01T10:51:45.096Z,23.05
2023-04-01T10:52:45.123Z,23.08
2023-04-01T10:53:45.165Z,23.05
2023-04-01T10:54:45.216Z,23.06
2023-04-01T10:55:45.312Z,23.05
2023-04-01T10:56:45.363Z,23.05
2023-04-01T10:57:45.384Z,23.02
2023-04-01T10:58:45.448Z,23.03
2023-04-01T10:59:45.516Z,23.02
2023-04-01T11:00:45.557Z,23.05
2023-04-01T11:01:45.744Z,22.98
2023-04-01T11:02:45.822Z,23.05
2023-04-01T11:03:45.858Z,23.05
2023-04-01T11:04:45.811Z,23.00
2023-04-01T11:05:45.851Z,22.96
2023-04-01T11:06:45.927Z,22.98
2023-04-01T11:07:50.460Z,22.96
2023-04-01T11:08:47.007Z,22.89
2023-04-01T11:09:46.010Z,22.94
2023-04-01T11:10:46.023Z,22.94
2023-04-01T11:11:46.088Z,22.86
2023-04-01T11:12:46.079Z,22.86
2023-04-01T11:13:46.099Z,22.86
2023-04-01T11:14:46.122Z,22.89
2023-04-01T11:15:46.184Z,22.81
2023-04-01T11:16:46.173Z,22.86
2023-04-01T11:17:46.202Z,22.81
2023-04-01T11:18:46.217Z,22.80
2023-04-01T11:19:46.255Z,22.81
2023-04-01T11:20:46.291Z,22.77
2023-04-01T11:21:47.110Z,22.78
2023-04-01T11:22:46.347Z,22.78
2023-04-01T11:23:58.315Z,22.77
2023-04-01T11:24:47.393Z,22.75
2023-04-01T11:25:46.380Z,22.72
2023-04-01T11:26:46.447Z,22.75
2023-04-01T11:27:46.441Z,22.78
2023-04-01T11:28:46.469Z,22.69
2023-04-01T11:29:58.836Z,22.68
2023-04-01T11:30:47.537Z,22.69
2023-04-01T11:31:46.588Z,22.72
2023-04-01T11:32:46.704Z,22.71
2023-04-01T11:33:46.577Z,22.69
2023-04-01T11:34:46.615Z,22.71
2023-04-01T11:35:46.660Z,22.71
2023-04-01T11:36:46.658Z,22.63
2023-04-01T11:37:46.658Z,22.63
2023-04-01T11:38:46.656Z,22.65
2023-04-01T11:39:46.674Z,22.71
2023-04-01T11:40:46.701Z,22.66
2023-04-01T11:41:46.727Z,22.65
2023-04-01T11:42:46.745Z,22.59
2023-04-01T11:43:46.756Z,22.51
2023-04-01T11:44:46.782Z,22.51
2023-04-01T11:45:46.825Z,22.51
2023-04-01T11:46:46.912Z,22.51
2023-04-01T11:47:46.877Z,22.51
2023-04-01T11:48:46.856Z,22.49
2023-04-01T11:49:46.913Z,22.43
2023-04-01T11:50:46.961Z,22.42
2023-04-01T11:51:46.968Z,22.47
2023-04-01T11:52:47.025Z,22.48
2023-04-01T11:53:47.101Z,22.38
2023-04-01T11:54:47.101Z,22.42
2023-04-01T11:55:49.202Z,22.42
2023-04-01T11:56:47.216Z,22.46
2023-04-01T11:57:47.179Z,22.42
2023-04-01T11:58:47.224Z,22.45
2023-04-01T11:59:47.232Z,22.40
2023-04-01T12:00:47.238Z,22.42
2023-04-01T12:01:47.265Z,22.43
2023-04-01T12:02:47.336Z,22.42
2023-04-01T12:03:47.429Z,22.42
2023-04-01T12:04:47.372Z,22.33
2023-04-01T12:05:47.368Z,22.30
2023-04-01T12:06:47.386Z,22.36
2023-04-01T12:07:47.400Z,22.34
2023-04-01T12:08:47.412Z,22.36
2023-04-01T12:09:47.417Z,22.36
2023-04-01T12:10:47.429Z,22.36
2023-04-01T12:11:47.446Z,22.38
2023-04-01T12:12:58.011Z,22.31
2023-04-01T12:13:48.480Z,22.33
2023-04-01T12:14:47.481Z,22.30
2023-04-01T12:15:47.496Z,22.36
2023-04-01T12:16:47.589Z,22.36
2023-04-01T12:17:47.546Z,22.29
2023-04-01T12:18:47.568Z,22.28
2023-04-01T12:19:47.574Z,22.21
2023-04-01T12:20:47.610Z,22.22
2023-04-01T12:21:47.644Z,22.22
2023-04-01T12:22:47.642Z,22.22
2023-04-01T12:23:47.627Z,22.31
2023-04-01T12:24:47.655Z,22.25
2023-04-01T12:25:47.675Z,22.15
2023-04-01T12:26:47.704Z,22.28
2023-04-01T12:27:47.698Z,22.29
2023-04-01T12:28:47.699Z,22.33
2023-04-01T12:29:47.704Z,22.19
2023-04-01T12:30:47.756Z,22.36
2023-04-01T12:31:47.808Z,22.21
2023-04-01T12:32:47.805Z,22.27
2023-04-01T12:33:47.808Z,22.42
2023-04-01T12:34:47.813Z,22.22
2023-04-01T12:35:47.911Z,22.17
2023-04-01T12:36:49.335Z,22.22
2023-04-01T12:37:47.908Z,22.31
2023-04-01T12:38:47.947Z,22.34
2023-04-01T12:39:47.965Z,22.11
2023-04-01T12:40:47.963Z,22.13
2023-04-01T12:41:48.000Z,22.14
2023-04-01T12:42:48.012Z,22.27
2023-04-01T12:43:48.032Z,22.05
2023-04-01T12:44:48.032Z,21.98
2023-04-01T12:45:48.129Z,21.93
2023-04-01T12:46:48.092Z,21.53
2023-04-01T12:47:48.153Z,21.57
2023-04-01T12:48:48.100Z,21.64
2023-04-01T12:49:48.157Z,21.59
2023-04-01T12:50:48.190Z,21.52
2023-04-01T12:51:48.189Z,21.49
2023-04-01T12:52:48.204Z,21.51